Bly, OR (97622)

12:02 AM PDT on July 31, 2014 (GMT -0700)
Ferguson Mountain (KORBEATT2) Elev 4843 ft | 42.48 °N, 121.21 °W | Change Station
Active Advisory: Fire Weather Warning

Current weather conditions updated 3 seconds ago

Overcast
Overcast
69.4 °F
Feels Like 69.4 °F
N
2.0
Wind Variable Wind from South
Gusts 4.0 mph

Today is forecast to be Warmer than yesterday.

Today
High -- | Low -- °F
--% Chance of Precip.
Yesterday
High -- | Low -- °F
Precip. -- in
5:56 AM 8:25 PM
Waxing Crescent, 16% visible
Pressure 30.10 in
Visibility 10.0 miles
Clouds Mostly Cloudy 11000 ft
Dew Point 27 °F
Humidity 20%
Rainfall 0.00 in
Snow Depth Not available.
UV 0 out of 12
Pollen 4.80 out of 12
Air Quality Not available.
Flu Activity Not available.
METAR KLMT 310453Z AUTO 28012KT 10SM -RA BKN110 22/11 A3024 RMK AO2 LTG DSNT SW SLP191 P0000 T02170111

More Conditions Fewer Conditions

Pressure 30.10 in
Visibility 10.0 miles
Clouds Mostly Cloudy 11000 ft
Dew Point 27 °F
Humidity 20%
Rainfall 0.00 in
Snow Depth Not available.
UV 0 out of 12
Pollen 4.80 out of 12
Air Quality Not available.
Flu Activity Not available.
METAR KLMT 310453Z AUTO 28012KT 10SM -RA BKN110 22/11 A3024 RMK AO2 LTG DSNT SW SLP191 P0000 T02170111

More Conditions Fewer Conditions

10-Day Weather Forecast

Almanac

Astronomy

Jul. 31, 2014 Rise Set
Actual Time 5:56 AM PDT 8:25 PM PDT
Civil Twilight 5:24 AM PDT 8:57 PM PDT
Nautical Twilight 4:44 AM PDT 9:36 PM PDT
Astronomical Twilight 3:59 AM PDT 10:21 PM PDT
Moon 10:35 AM PDT 10:33 PM PDT
Length of Visible Light 15h 32m
Length of Day
14h 29m
Tomorrow will be 2m 9s shorter.
Waxing Crescent, 16% of the Moon is Illuminated
Today
Waxing Crescent
Aug 3
First Quarter
Aug 10
Full
Aug 17
Last Quarter
Aug 25
New

Today's Extremes

State Highs State Lows

Community

WunderPhotos

Upload Photos

1,739,251 photos uploaded!

Nearby

Snow Depth

Station Depth Elevation
Strawberry 0 in 5760 ft
Sevenmile Marsh 0 in 6200 ft
Cold Springs Camp 0 in 6100 ft
Fourmile Lake 0 in 6000 ft
Billie Creek Divide 0 in 5300 ft

Earthquake Activity

City Distance Mag. Time & Date
No recent earthquake activity has been reported nearby.
Minimum magnitude displayed is 2.5.

Coastal Water Temperatures

Place Temperature
No Stations Reporting

Nearby Weather Stations

Station Location Temp. Heat Index Dew Point Humidity Wind Precip. Elev Updated Type
Ferguson Mountain, Beatty, OR 69.4 °F - 27 °F 20% South  at  2.0 mph 0.00 in / hr 4843 ft 12:02 AM PDT Rapid Fire
RAWS GERBER RESERVOIR OR, Bonanza, OR 71 °F 77 °F 43 °F 36% NW  at  2 mph 0.00 in / hr 4950 ft 10:45 PM PDT MADIS
RAWS STRAWBERRY OR, Bonanza, OR 70 °F - 40 °F 33% NNW  at  5 mph 0.00 in / hr 5589 ft 11:03 PM PDT MADIS
MesoWest Lorella , Malin, OR 72 °F 77 °F 47 °F 41% NNW  at  6 mph 0.00 in / hr 4160 ft 11:00 PM PDT MADIS
RAWS CALIMUS OR, Sprague River, OR 65 °F - 38 °F 37% WSW  at  11 mph 0.00 in / hr 6628 ft 11:00 PM PDT MADIS

Show More Stations Show Fewer Stations